Time,TemperatureF,DewpointF,PressureIn,WindDirection,WindDirectionDegrees,WindSpeedMPH,WindSpeedGustMPH,Humidity,HourlyPrecipIn,Conditions,Clouds,dailyrainin,SolarRadiationWatts/m^2,SoftwareType,DateUTC
2013-06-30 00:01:00,66.0,63.0,-100.00,WSW,252,1.0,2.0,89,0.00,,,0.02,0.000000,,2013-06-30 04:01:00,
2013-06-30 00:22:00,66.0,63.0,-100.00,WSW,252,1.0,2.0,89,0.00,,,0.02,0.000000,,2013-06-30 04:22:00,
2013-06-30 00:33:00,66.0,63.0,-100.00,WSW,252,1.0,2.0,89,0.00,,,0.02,0.000000,,2013-06-30 04:33:00,
2013-06-30 00:43:00,66.0,63.0,-100.00,WSW,252,1.0,2.0,89,0.00,,,0.02,0.000000,,2013-06-30 04:43:00,
2013-06-30 00:53:00,66.0,63.0,-100.00,WSW,252,1.0,2.0,89,0.00,,,0.02,0.000000,,2013-06-30 04:53:00,
2013-06-30 01:01:00,65.0,63.0,-100.00,SSW,200,1.0,3.0,93,0.00,,,0.02,0.000000,,2013-06-30 05:01:00,
2013-06-30 01:22:00,65.0,63.0,-100.00,SSW,200,1.0,3.0,93,0.00,,,0.02,0.000000,,2013-06-30 05:22:00,
2013-06-30 01:34:00,65.0,63.0,-100.00,SSW,200,1.0,3.0,93,0.00,,,0.02,0.000000,,2013-06-30 05:34:00,
2013-06-30 01:43:00,65.0,63.0,-100.00,SSW,200,1.0,3.0,93,0.00,,,0.02,0.000000,,2013-06-30 05:43:00,
2013-06-30 01:53:00,65.0,63.0,-100.00,SSW,200,1.0,3.0,93,0.00,,,0.02,0.000000,,2013-06-30 05:53:00,
2013-06-30 02:01:00,64.0,63.0,-100.00,WSW,253,1.0,3.0,97,0.00,,,0.02,0.000000,,2013-06-30 06:01:00,
2013-06-30 02:23:00,64.0,63.0,-100.00,WSW,253,1.0,3.0,97,0.00,,,0.02,0.000000,,2013-06-30 06:23:00,
2013-06-30 02:34:00,64.0,63.0,-100.00,WSW,253,1.0,3.0,97,0.00,,,0.02,0.000000,,2013-06-30 06:34:00,
2013-06-30 02:43:00,64.0,63.0,-100.00,WSW,253,1.0,3.0,97,0.00,,,0.02,0.000000,,2013-06-30 06:43:00,
2013-06-30 02:53:00,64.0,63.0,-100.00,WSW,253,1.0,3.0,97,0.00,,,0.02,0.000000,,2013-06-30 06:53:00,
2013-06-30 03:01:00,63.0,62.0,-100.00,NNE,21,1.0,2.0,97,0.00,,,0.02,0.000000,,2013-06-30 07:01:00,
2013-06-30 03:22:00,63.0,62.0,-100.00,NNE,21,1.0,2.0,97,0.00,,,0.02,0.000000,,2013-06-30 07:22:00,
2013-06-30 03:33:00,63.0,62.0,-100.00,NNE,21,1.0,2.0,97,0.00,,,0.02,0.000000,,2013-06-30 07:33:00,
2013-06-30 03:44:00,63.0,62.0,-100.00,NNE,21,1.0,2.0,97,0.00,,,0.02,0.000000,,2013-06-30 07:44:00,
2013-06-30 03:53:00,63.0,62.0,-100.00,NNE,21,1.0,2.0,97,0.00,,,0.02,0.000000,,2013-06-30 07:53:00,
2013-06-30 04:01:00,63.0,62.0,-100.00,NNW,332,1.0,2.0,97,0.00,,,0.02,0.000000,,2013-06-30 08:01:00,
2013-06-30 04:22:00,63.0,62.0,-100.00,NNW,332,1.0,2.0,97,0.00,,,0.02,0.000000,,2013-06-30 08:22:00,
2013-06-30 04:34:00,63.0,62.0,-100.00,NNW,332,1.0,2.0,97,0.00,,,0.02,0.000000,,2013-06-30 08:34:00,
2013-06-30 04:42:00,63.0,62.0,-100.00,NNW,332,1.0,2.0,97,0.00,,,0.02,0.000000,,2013-06-30 08:42:00,
2013-06-30 04:53:00,63.0,62.0,-100.00,NNW,332,1.0,2.0,97,0.00,,,0.02,0.000000,,2013-06-30 08:53:00,
2013-06-30 05:01:00,63.0,62.0,-100.00,SSE,156,1.0,3.0,97,0.00,,,0.02,0.000000,,2013-06-30 09:01:00,
2013-06-30 05:23:00,63.0,62.0,-100.00,SSE,156,1.0,3.0,97,0.00,,,0.02,0.000000,,2013-06-30 09:23:00,
2013-06-30 05:34:00,63.0,62.0,-100.00,SSE,156,1.0,3.0,97,0.00,,,0.02,0.000000,,2013-06-30 09:34:00,
2013-06-30 05:43:00,63.0,62.0,-100.00,SSE,156,1.0,3.0,97,0.00,,,0.02,0.000000,,2013-06-30 09:43:00,
2013-06-30 05:53:00,63.0,62.0,-100.00,SSE,156,1.0,3.0,97,0.00,,,0.02,0.000000,,2013-06-30 09:53:00,
2013-06-30 06:01:00,63.0,62.0,-100.00,WNW,302,0.0,2.0,98,0.00,,,0.02,0.000000,,2013-06-30 10:01:00,
2013-06-30 06:22:00,63.0,62.0,-100.00,WNW,302,0.0,2.0,98,0.00,,,0.02,0.000000,,2013-06-30 10:22:00,
2013-06-30 06:34:00,63.0,62.0,-100.00,WNW,302,0.0,2.0,98,0.00,,,0.02,0.000000,,2013-06-30 10:34:00,
2013-06-30 06:43:00,63.0,62.0,-100.00,WNW,302,0.0,2.0,98,0.00,,,0.02,0.000000,,2013-06-30 10:43:00,
2013-06-30 06:53:00,63.0,62.0,-100.00,WNW,302,0.0,2.0,98,0.00,,,0.02,0.000000,,2013-06-30 10:53:00,
2013-06-30 07:01:00,63.0,62.0,-100.00,North,357,1.0,2.0,98,0.00,,,0.02,12.000000,,2013-06-30 11:01:00,
2013-06-30 07:22:00,63.0,62.0,-100.00,North,357,1.0,2.0,98,0.00,,,0.02,12.000000,,2013-06-30 11:22:00,
2013-06-30 07:33:00,63.0,62.0,-100.00,North,357,1.0,2.0,98,0.00,,,0.02,12.000000,,2013-06-30 11:33:00,
2013-06-30 07:43:00,63.0,62.0,-100.00,North,357,1.0,2.0,98,0.00,,,0.02,12.000000,,2013-06-30 11:43:00,
2013-06-30 07:53:00,63.0,62.0,-100.00,North,357,1.0,2.0,98,0.00,,,0.02,12.000000,,2013-06-30 11:53:00,
2013-06-30 08:01:00,66.0,65.0,-100.00,ENE,78,1.0,2.0,96,0.00,,,0.02,115.000000,,2013-06-30 12:01:00,
2013-06-30 08:24:00,66.0,65.0,-100.00,ENE,78,1.0,2.0,96,0.00,,,0.02,115.000000,,2013-06-30 12:24:00,
2013-06-30 08:33:00,66.0,65.0,-100.00,ENE,78,1.0,2.0,96,0.00,,,0.02,115.000000,,2013-06-30 12:33:00,
2013-06-30 08:43:00,66.0,65.0,-100.00,ENE,78,1.0,2.0,96,0.00,,,0.02,115.000000,,2013-06-30 12:43:00,
2013-06-30 08:52:00,66.0,65.0,-100.00,ENE,78,1.0,2.0,96,0.00,,,0.02,115.000000,,2013-06-30 12:52:00,
2013-06-30 09:01:00,72.0,68.0,-100.00,ENE,72,2.0,5.0,88,0.00,,,0.02,351.000000,,2013-06-30 13:01:00,
2013-06-30 09:22:00,72.0,68.0,-100.00,ENE,72,2.0,5.0,88,0.00,,,0.02,351.000000,,2013-06-30 13:22:00,
2013-06-30 09:34:00,72.0,68.0,-100.00,ENE,72,2.0,5.0,88,0.00,,,0.02,351.000000,,2013-06-30 13:34:00,
2013-06-30 09:44:00,72.0,68.0,-100.00,ENE,72,2.0,5.0,88,0.00,,,0.02,351.000000,,2013-06-30 13:44:00,
2013-06-30 09:53:00,72.0,68.0,-100.00,ENE,72,2.0,5.0,88,0.00,,,0.02,351.000000,,2013-06-30 13:53:00,
2013-06-30 10:01:00,75.0,68.0,-100.00,South,175,2.0,6.0,79,0.00,,,0.02,629.000000,,2013-06-30 14:01:00,
2013-06-30 10:33:00,75.0,68.0,-100.00,South,175,2.0,6.0,79,0.00,,,0.02,629.000000,,2013-06-30 14:33:00,
2013-06-30 10:44:00,75.0,68.0,-100.00,South,175,2.0,6.0,79,0.00,,,0.02,629.000000,,2013-06-30 14:44:00,
2013-06-30 10:52:00,75.0,68.0,-100.00,South,175,2.0,6.0,79,0.00,,,0.02,629.000000,,2013-06-30 14:52:00,
2013-06-30 11:01:00,79.0,68.0,-100.00,South,175,3.0,5.0,69,0.00,,,0.02,795.000000,,2013-06-30 15:01:00,
2013-06-30 11:23:00,79.0,68.0,-100.00,South,175,3.0,5.0,69,0.00,,,0.02,795.000000,,2013-06-30 15:23:00,
2013-06-30 11:35:00,79.0,68.0,-100.00,South,175,3.0,5.0,69,0.00,,,0.02,795.000000,,2013-06-30 15:35:00,
2013-06-30 11:44:00,79.0,68.0,-100.00,South,175,3.0,5.0,69,0.00,,,0.02,795.000000,,2013-06-30 15:44:00,
2013-06-30 11:53:00,79.0,68.0,-100.00,South,175,3.0,5.0,69,0.00,,,0.02,795.000000,,2013-06-30 15:53:00,
2013-06-30 12:01:00,81.0,69.0,-100.00,SSW,203,4.0,7.0,68,0.00,,,0.02,900.000000,,2013-06-30 16:01:00,
2013-06-30 12:34:00,81.0,69.0,-100.00,SSW,203,4.0,7.0,68,0.00,,,0.02,900.000000,,2013-06-30 16:34:00,
2013-06-30 12:44:00,81.0,69.0,-100.00,SSW,203,4.0,7.0,68,0.00,,,0.02,900.000000,,2013-06-30 16:44:00,
2013-06-30 12:53:00,81.0,69.0,-100.00,SSW,203,4.0,7.0,68,0.00,,,0.02,900.000000,,2013-06-30 16:53:00,
2013-06-30 13:01:00,83.0,66.0,-100.00,SSW,205,4.0,9.0,57,0.00,,,0.02,1059.000000,,2013-06-30 17:01:00,
2013-06-30 13:23:00,83.0,66.0,-100.00,SSW,205,4.0,9.0,57,0.00,,,0.02,1059.000000,,2013-06-30 17:23:00,
2013-06-30 13:34:00,83.0,66.0,-100.00,SSW,205,4.0,9.0,57,0.00,,,0.02,1059.000000,,2013-06-30 17:34:00,
2013-06-30 13:43:00,83.0,66.0,-100.00,SSW,205,4.0,9.0,57,0.00,,,0.02,1059.000000,,2013-06-30 17:43:00,
2013-06-30 13:53:00,83.0,66.0,-100.00,SSW,205,4.0,9.0,57,0.00,,,0.02,1059.000000,,2013-06-30 17:53:00,
2013-06-30 14:01:00,85.0,69.0,-100.00,SSW,203,4.0,8.0,59,0.00,,,0.02,795.000000,,2013-06-30 18:01:00,
2013-06-30 14:22:00,85.0,69.0,-100.00,SSW,203,4.0,8.0,59,0.00,,,0.02,795.000000,,2013-06-30 18:22:00,
2013-06-30 14:34:00,85.0,69.0,-100.00,SSW,203,4.0,8.0,59,0.00,,,0.02,795.000000,,2013-06-30 18:34:00,
2013-06-30 14:43:00,85.0,69.0,-100.00,SSW,203,4.0,8.0,59,0.00,,,0.02,795.000000,,2013-06-30 18:43:00,
2013-06-30 14:53:00,85.0,69.0,-100.00,SSW,203,4.0,8.0,59,0.00,,,0.02,795.000000,,2013-06-30 18:53:00,
2013-06-30 15:01:00,85.0,67.0,-100.00,South,188,3.0,9.0,55,0.00,,,0.02,972.000000,,2013-06-30 19:01:00,
2013-06-30 15:22:00,85.0,67.0,-100.00,South,188,3.0,9.0,55,0.00,,,0.02,972.000000,,2013-06-30 19:22:00,
2013-06-30 15:33:00,85.0,67.0,-100.00,South,188,3.0,9.0,55,0.00,,,0.02,972.000000,,2013-06-30 19:33:00,
2013-06-30 15:43:00,85.0,67.0,-100.00,South,188,3.0,9.0,55,0.00,,,0.02,972.000000,,2013-06-30 19:43:00,
2013-06-30 15:53:00,85.0,67.0,-100.00,South,188,3.0,9.0,55,0.00,,,0.02,972.000000,,2013-06-30 19:53:00,
2013-06-30 16:01:00,86.0,66.0,-100.00,South,186,3.0,8.0,51,0.00,,,0.02,902.000000,,2013-06-30 20:01:00,
2013-06-30 16:22:00,86.0,66.0,-100.00,South,186,3.0,8.0,51,0.00,,,0.02,902.000000,,2013-06-30 20:22:00,
2013-06-30 16:34:00,86.0,66.0,-100.00,South,186,3.0,8.0,51,0.00,,,0.02,902.000000,,2013-06-30 20:34:00,
2013-06-30 16:42:00,86.0,66.0,-100.00,South,186,3.0,8.0,51,0.00,,,0.02,902.000000,,2013-06-30 20:42:00,
2013-06-30 16:52:00,86.0,66.0,-100.00,South,186,3.0,8.0,51,0.00,,,0.02,902.000000,,2013-06-30 20:52:00,
2013-06-30 17:01:00,80.0,64.0,-100.00,SSW,200,4.0,7.0,59,0.00,,,0.02,539.000000,,2013-06-30 21:01:00,
2013-06-30 17:22:00,80.0,64.0,-100.00,SSW,200,4.0,7.0,59,0.00,,,0.02,539.000000,,2013-06-30 21:22:00,
2013-06-30 17:34:00,80.0,64.0,-100.00,SSW,200,4.0,7.0,59,0.00,,,0.02,539.000000,,2013-06-30 21:34:00,
2013-06-30 17:43:00,80.0,64.0,-100.00,SSW,200,4.0,7.0,59,0.00,,,0.02,539.000000,,2013-06-30 21:43:00,
2013-06-30 17:53:00,80.0,64.0,-100.00,SSW,200,4.0,7.0,59,0.00,,,0.02,539.000000,,2013-06-30 21:53:00,
2013-06-30 18:01:00,79.0,68.0,-100.00,SSW,202,3.0,9.0,68,0.00,,,0.02,370.000000,,2013-06-30 22:01:00,
2013-06-30 18:22:00,79.0,68.0,-100.00,SSW,202,3.0,9.0,68,0.00,,,0.02,370.000000,,2013-06-30 22:22:00,
2013-06-30 18:34:00,79.0,68.0,-100.00,SSW,202,3.0,9.0,68,0.00,,,0.02,370.000000,,2013-06-30 22:34:00,
2013-06-30 18:43:00,79.0,68.0,-100.00,SSW,202,3.0,9.0,68,0.00,,,0.02,370.000000,,2013-06-30 22:43:00,
2013-06-30 18:53:00,79.0,68.0,-100.00,SSW,202,3.0,9.0,68,0.00,,,0.02,370.000000,,2013-06-30 22:53:00,
2013-06-30 19:01:00,75.0,67.0,-100.00,SSW,208,3.0,7.0,75,0.00,,,0.02,146.000000,,2013-06-30 23:01:00,
2013-06-30 19:22:00,75.0,67.0,-100.00,SSW,208,3.0,7.0,75,0.00,,,0.02,146.000000,,2013-06-30 23:22:00,
2013-06-30 19:33:00,75.0,67.0,-100.00,SSW,208,3.0,7.0,75,0.00,,,0.02,146.000000,,2013-06-30 23:33:00,
2013-06-30 19:44:00,75.0,67.0,-100.00,SSW,208,3.0,7.0,75,0.00,,,0.02,146.000000,,2013-06-30 23:44:00,
2013-06-30 19:53:00,75.0,67.0,-100.00,SSW,208,3.0,7.0,75,0.00,,,0.02,146.000000,,2013-06-30 23:53:00,
2013-06-30 20:01:00,73.0,66.0,-100.00,SSW,199,2.0,4.0,80,0.00,,,0.01,61.000000,,2013-07-01 00:01:00,
2013-06-30 20:22:00,73.0,66.0,-100.00,SSW,199,2.0,4.0,80,0.00,,,0.01,61.000000,,2013-07-01 00:22:00,
2013-06-30 20:33:00,73.0,66.0,-100.00,SSW,199,2.0,4.0,80,0.00,,,0.01,61.000000,,2013-07-01 00:33:00,
2013-06-30 20:42:00,73.0,66.0,-100.00,SSW,199,2.0,4.0,80,0.00,,,0.01,61.000000,,2013-07-01 00:42:00,
2013-06-30 20:52:00,73.0,66.0,-100.00,SSW,199,2.0,4.0,80,0.00,,,0.01,61.000000,,2013-07-01 00:52:00,
2013-06-30 21:01:00,68.0,63.0,-100.00,SSW,203,9.0,16.0,84,0.12,,,0.13,3.000000,,2013-07-01 01:01:00,
2013-06-30 21:22:00,68.0,63.0,-100.00,SSW,203,9.0,16.0,84,0.12,,,0.13,3.000000,,2013-07-01 01:22:00,
2013-06-30 21:34:00,68.0,63.0,-100.00,SSW,203,9.0,16.0,84,0.12,,,0.13,3.000000,,2013-07-01 01:34:00,
2013-06-30 21:43:00,68.0,63.0,-100.00,SSW,203,9.0,16.0,84,0.12,,,0.13,3.000000,,2013-07-01 01:43:00,
2013-06-30 21:52:00,68.0,63.0,-100.00,SSW,203,9.0,16.0,84,0.12,,,0.13,3.000000,,2013-07-01 01:52:00,
2013-06-30 22:01:00,63.0,62.0,-100.00,SSW,207,5.0,16.0,98,0.22,,,0.35,0.000000,,2013-07-01 02:01:00,
2013-06-30 22:22:00,63.0,62.0,-100.00,SSW,207,5.0,16.0,98,0.22,,,0.35,0.000000,,2013-07-01 02:22:00,
2013-06-30 22:33:00,63.0,62.0,-100.00,SSW,207,5.0,16.0,98,0.22,,,0.35,0.000000,,2013-07-01 02:33:00,
2013-06-30 22:44:00,63.0,62.0,-100.00,SSW,207,5.0,16.0,98,0.22,,,0.35,0.000000,,2013-07-01 02:44:00,
2013-06-30 22:54:00,63.0,62.0,-100.00,SSW,207,5.0,16.0,98,0.22,,,0.35,0.000000,,2013-07-01 02:54:00,
2013-06-30 23:01:00,62.0,62.0,-100.00,SSW,210,2.0,11.0,99,0.11,,,0.45,0.000000,,2013-07-01 03:01:00,
2013-06-30 23:23:00,62.0,62.0,-100.00,SSW,210,2.0,11.0,99,0.11,,,0.45,0.000000,,2013-07-01 03:23:00,
2013-06-30 23:33:00,62.0,62.0,-100.00,SSW,210,2.0,11.0,99,0.11,,,0.45,0.000000,,2013-07-01 03:33:00,
2013-06-30 23:43:00,62.0,62.0,-100.00,SSW,210,2.0,11.0,99,0.11,,,0.45,0.000000,,2013-07-01 03:43:00,
2013-06-30 23:52:00,62.0,62.0,-100.00,SSW,210,2.0,11.0,99,0.11,,,0.45,0.000000,,2013-07-01 03:52:00,